Time;durP1;ratioP1;P1;durP2;ratioP2;P2;SDS_P1;SDS_P2;PMS_P1;PMS_P2;Temp;Humidity;BMP_temperature;BMP_pressure;BME280_temperature;BME280_humidity;BME280_pressure;Samples;Min_cycle;Max_cycle;Signal;HPM_P1;HPM_P2
2023/02/22 00:02:09;;;;;;;;;17.00;13.00;;;;;8.42;90.45;99509.38;6285912;20;2811832;-43
2023/02/22 00:04:39;;;;;;;;;22.50;17.00;;;;;8.35;90.59;99503.50;6317974;20;2823264;-48
2023/02/22 00:07:07;;;;;;;;;24.50;16.50;;;;;8.48;90.19;99503.72;6284383;20;2494033;-46
2023/02/22 00:09:35;;;;;;;;;15.00;11.50;;;;;8.53;90.15;99507.84;6284936;20;2796119;-45
2023/02/22 00:12:03;;;;;;;;;10.50;9.00;;;;;8.66;89.57;99508.03;6285537;20;2772176;-46
2023/02/22 00:14:32;;;;;;;;;15.00;13.00;;;;;8.56;89.53;99507.66;6284717;20;2810789;-45
2023/02/22 00:17:01;;;;;;;;;14.67;11.33;;;;;8.42;90.08;99501.34;6314518;20;2795209;-45
2023/02/22 00:19:29;;;;;;;;;17.00;12.67;;;;;8.17;90.82;99500.00;6314254;20;2794202;-44
2023/02/22 00:21:58;;;;;;;;;14.00;12.00;;;;;8.14;91.27;99493.03;6314957;20;2783608;-45
2023/02/22 00:24:28;;;;;;;;;11.50;11.50;;;;;8.03;91.25;99494.53;6286562;20;2794055;-44
2023/02/22 00:26:56;;;;;;;;;15.67;12.00;;;;;8.06;91.84;99497.94;6287175;20;3538786;-46
2023/02/22 00:29:25;;;;;;;;;15.00;12.00;;;;;8.11;91.91;99495.88;6316382;20;2793091;-44
2023/02/22 00:31:53;;;;;;;;;19.50;16.00;;;;;8.30;91.61;99500.22;6316663;20;2810909;-44
2023/02/22 00:34:22;;;;;;;;;12.00;12.00;;;;;8.46;90.72;99502.94;6285383;20;2797303;-45
2023/02/22 00:36:51;;;;;;;;;15.00;13.33;;;;;8.47;90.56;99501.97;6281614;20;2796623;-44
2023/02/22 00:39:19;;;;;;;;;10.50;9.00;;;;;8.37;90.99;99496.22;6315083;20;2772295;-52
2023/02/22 00:41:48;;;;;;;;;12.00;12.00;;;;;8.41;90.70;99500.50;6288378;20;2805532;-46
2023/02/22 00:44:17;;;;;;;;;15.00;12.67;;;;;8.40;90.76;99498.78;6285940;20;3534688;-49
2023/02/22 00:46:45;;;;;;;;;14.33;14.00;;;;;8.40;90.73;99496.09;6313662;20;2797235;-47
2023/02/22 00:49:17;;;;;;;;;12.00;12.00;;;;;8.50;90.47;99505.31;6316915;20;2790198;-44
2023/02/22 00:51:45;;;;;;;;;12.33;12.33;;;;;8.55;90.21;99497.03;6313866;20;3517963;-47
2023/02/22 00:54:14;;;;;;;;;7.50;7.50;;;;;8.56;90.06;99502.31;6319303;20;2738918;-46
2023/02/22 00:56:44;;;;;;;;;12.00;12.00;;;;;8.56;90.05;99501.47;6305348;20;2806587;-44
2023/02/22 00:59:13;;;;;;;;;8.25;8.25;;;;;8.52;90.10;99503.44;6304485;20;1809759;-43
2023/02/22 01:01:41;;;;;;;;;18.50;12.00;;;;;8.48;90.38;99501.88;6317504;20;2802418;-44
2023/02/22 01:04:09;;;;;;;;;14.00;12.50;;;;;8.50;90.14;99502.63;6284722;20;2794066;-45
2023/02/22 01:06:37;;;;;;;;;13.00;12.00;;;;;8.61;89.83;99504.75;6288713;20;2791976;-44
2023/02/22 01:09:06;;;;;;;;;17.00;13.00;;;;;8.57;89.70;99506.72;6285732;20;3544027;-45
2023/02/22 01:11:34;;;;;;;;;11.00;11.00;;;;;8.66;89.49;99507.13;6316220;20;2789033;-44
2023/02/22 01:14:02;;;;;;;;;17.33;13.33;;;;;8.62;89.62;99509.13;6283359;20;3551698;-45
2023/02/22 01:16:30;;;;;;;;;12.50;11.00;;;;;8.46;90.01;99511.81;6316398;20;2790090;-49
2023/02/22 01:19:00;;;;;;;;;13.00;13.00;;;;;8.52;89.95;99514.13;6284279;20;2798186;-45
2023/02/22 01:21:27;;;;;;;;;15.50;13.00;;;;;8.25;91.40;99519.19;6311050;20;2818122;-46
2023/02/22 01:23:55;;;;;;;;;16.00;13.00;;;;;7.97;92.40;99509.09;6285946;20;2814844;-45
2023/02/22 01:26:23;;;;;;;;;15.00;15.00;;;;;7.84;92.63;99511.56;6287205;20;2806604;-45
2023/02/22 01:28:51;;;;;;;;;15.00;15.00;;;;;7.69;93.15;99512.41;6282191;20;3531576;-44
2023/02/22 01:31:19;;;;;;;;;17.00;13.50;;;;;7.75;93.32;99509.41;6312575;20;2821147;-48
2023/02/22 01:33:52;;;;;;;;;18.40;16.80;;;;;7.69;93.63;99507.06;6306417;20;2825307;-44
2023/02/22 01:36:21;;;;;;;;;19.00;16.33;;;;;7.62;93.89;99505.63;6280238;20;3553476;-44
2023/02/22 01:38:49;;;;;;;;;16.67;14.67;;;;;7.41;94.53;99511.16;6312603;20;3552406;-48
2023/02/22 01:41:18;;;;;;;;;19.33;14.67;;;;;7.34;95.11;99503.53;6313816;20;3543984;-46
2023/02/22 01:43:47;;;;;;;;;15.00;15.00;;;;;7.40;95.15;99503.22;6311412;20;3546128;-45
2023/02/22 01:46:25;;;;;;;;;16.33;15.33;;;;;7.33;95.33;99504.47;6283672;20;3551316;-45
2023/02/22 01:49:05;;;;;;;;;17.50;16.00;;;;;7.19;95.58;99502.53;6282284;20;2825427;-44
2023/02/22 01:51:42;;;;;;;;;19.00;17.50;;;;;7.13;95.72;99503.66;6278493;20;2825264;-44
2023/02/22 01:54:32;;;;;;;;;16.00;16.00;;;;;7.06;96.32;99504.94;6280551;20;3560719;-44
2023/02/22 01:57:28;;;;;;;;;14.67;13.33;;;;;7.03;96.45;99507.75;6279526;20;3537962;-47
2023/02/22 02:00:13;;;;;;;;;19.50;19.50;;;;;6.87;97.17;99504.09;6309358;20;2500318;-43
2023/02/22 02:03:08;;;;;;;;;19.67;19.67;;;;;6.77;97.60;99504.56;6305977;20;2826318;-44
2023/02/22 02:05:38;;;;;;;;;20.00;16.67;;;;;6.85;97.83;99500.66;6313134;20;3557552;-45
2023/02/22 02:08:37;;;;;;;;;22.50;21.50;;;;;6.80;97.45;99498.22;6306185;20;2500306;-46
2023/02/22 02:11:09;;;;;;;;;18.33;18.00;;;;;6.87;97.46;99496.97;6274364;20;3556598;-46
2023/02/22 02:13:37;;;;;;;;;20.00;20.00;;;;;6.91;97.32;99495.03;6282687;20;2835689;-46
2023/02/22 02:16:06;;;;;;;;;25.00;19.33;;;;;6.76;97.79;99497.47;6279315;20;3573188;-45
2023/02/22 02:18:34;;;;;;;;;19.00;17.00;;;;;6.60;97.89;99496.50;6278064;20;2500265;-44
2023/02/22 02:21:36;;;;;;;;;21.00;20.00;;;;;6.68;98.38;99502.34;6277567;20;2500321;-45
2023/02/22 02:24:40;;;;;;;;;22.33;17.00;;;;;6.93;97.84;99494.00;6280279;20;3550391;-46
2023/02/22 02:27:23;;;;;;;;;22.00;19.50;;;;;6.84;97.81;99504.25;6277266;20;2500380;-45
2023/02/22 02:30:39;;;;;;;;;20.00;16.33;;;;;6.95;98.04;99501.91;6279301;20;3553906;-46
2023/02/22 02:33:12;;;;;;;;;16.33;15.00;;;;;7.08;97.28;99499.50;6281906;20;3538001;-46
2023/02/22 02:36:07;;;;;;;;;23.00;18.67;;;;;6.92;97.61;99496.72;6279520;20;3571271;-44
2023/02/22 02:39:20;;;;;;;;;18.67;16.67;;;;;7.09;97.70;99503.91;6278604;20;3558704;-43
2023/02/22 02:41:51;;;;;;;;;19.00;17.00;;;;;7.31;96.88;99509.03;6273397;20;2500308;-44
2023/02/22 02:45:04;;;;;;;;;19.00;18.50;;;;;7.29;97.07;99508.22;6283957;20;2833754;-45
2023/02/22 02:47:43;;;;;;;;;14.67;13.00;;;;;7.31;97.10;99503.69;6280059;20;3526290;-43
2023/02/22 02:50:47;;;;;;;;;17.33;17.33;;;;;7.19;97.49;99495.38;6314408;20;3557581;-44
2023/02/22 02:53:24;;;;;;;;;19.67;17.67;;;;;7.15;97.54;99508.94;6282919;20;3560766;-43
2023/02/22 02:55:52;;;;;;;;;20.67;20.00;;;;;7.00;98.09;99511.44;6286525;20;3561713;-43
2023/02/22 02:58:23;;;;;;;;;22.67;17.00;;;;;7.06;97.72;99510.28;6313842;20;3552480;-45
2023/02/22 03:00:59;;;;;;;;;21.00;17.00;;;;;6.99;98.13;99508.84;6285308;20;3555489;-43
2023/02/22 03:04:19;;;;;;;;;24.00;21.50;;;;;6.93;98.15;99518.03;6285075;20;2838213;-44
2023/02/22 03:07:19;;;;;;;;;16.00;16.00;;;;;6.77;99.14;99512.56;6284087;20;2815962;-45
2023/02/22 03:10:22;;;;;;;;;21.00;20.00;;;;;6.80;99.16;99514.22;6282697;20;2500279;-45
2023/02/22 03:13:11;;;;;;;;;17.50;17.50;;;;;6.77;99.47;99515.25;6283799;20;2496178;-44
2023/02/22 03:16:03;;;;;;;;;22.33;18.00;;;;;6.92;99.14;99531.44;6283605;20;3559627;-44
2023/02/22 03:18:55;;;;;;;;;19.67;15.33;;;;;6.90;98.46;99523.53;6282661;20;3548233;-45
2023/02/22 03:21:39;;;;;;;;;18.33;16.33;;;;;6.88;98.62;99520.06;6315410;20;3548262;-49
2023/02/22 03:24:37;;;;;;;;;20.50;17.00;;;;;6.80;98.65;99528.44;6282232;20;2821125;-46
2023/02/22 03:27:28;;;;;;;;;23.50;20.00;;;;;6.70;98.96;99521.81;6284316;20;2496128;-48
2023/02/22 03:30:11;;;;;;;;;18.00;16.67;;;;;6.61;99.90;99519.59;6285315;20;3558614;-45
2023/02/22 03:32:48;;;;;;;;;23.00;18.00;;;;;6.53;100.00;99522.63;6285922;20;2827395;-43
2023/02/22 03:35:29;;;;;;;;;23.00;18.50;;;;;6.50;100.00;99522.78;6282175;20;2500283;-43
2023/02/22 03:38:03;;;;;;;;;18.00;18.00;;;;;6.49;100.00;99525.50;6282857;20;3569056;-43
2023/02/22 03:40:38;;;;;;;;;17.00;14.50;;;;;6.53;100.00;99527.06;6287805;20;2813345;-43
2023/02/22 03:43:14;;;;;;;;;22.00;19.50;;;;;6.38;100.00;99528.69;6284392;20;2837785;-47
2023/02/22 03:45:46;;;;;;;;;21.00;19.33;;;;;6.23;100.00;99519.59;6279318;20;3573285;-45
2023/02/22 03:48:57;;;;;;;;;27.33;22.00;;;;;6.35;100.00;99534.16;6282782;20;3572153;-45
2023/02/22 03:51:27;;;;;;;;;22.00;20.00;;;;;6.32;100.00;99535.19;6276817;20;2500410;-46
2023/02/22 03:53:56;;;;;;;;;18.33;18.33;;;;;6.12;100.00;99532.56;6283957;20;3556533;-45
2023/02/22 03:56:36;;;;;;;;;38.00;34.00;;;;;6.01;100.00;99537.53;6279796;20;2861714;-45
2023/02/22 03:59:09;;;;;;;;;60.00;45.67;;;;;5.73;100.00;99531.56;6278764;20;2883909;-45
2023/02/22 04:01:38;;;;;;;;;51.00;39.50;;;;;5.63;100.00;99542.69;6313301;20;2857665;-45
2023/02/22 04:04:06;;;;;;;;;31.00;27.50;;;;;5.67;100.00;99541.66;6285302;20;2839907;-45
2023/02/22 04:06:35;;;;;;;;;24.00;24.00;;;;;5.78;100.00;99543.84;6284053;20;2840996;-44
2023/02/22 04:09:07;;;;;;;;;32.00;25.50;;;;;5.89;100.00;99537.09;6286165;20;2859664;-44
2023/02/22 04:11:35;;;;;;;;;22.50;22.50;;;;;5.90;100.00;99544.16;6279319;20;2496174;-44
2023/02/22 04:14:04;;;;;;;;;36.67;32.33;;;;;5.64;100.00;99549.78;6284374;20;3610836;-45
2023/02/22 04:16:34;;;;;;;;;35.67;28.33;;;;;5.60;100.00;99548.16;6314364;20;2860800;-45
2023/02/22 04:19:02;;;;;;;;;30.50;30.50;;;;;5.52;100.00;99536.97;6315171;20;2852361;-44
2023/02/22 04:21:31;;;;;;;;;26.00;23.00;;;;;5.64;100.00;99544.44;6281747;20;2839932;-44
2023/02/22 04:24:00;;;;;;;;;20.00;20.00;;;;;5.70;100.00;99536.19;6284258;20;3570749;-48
2023/02/22 04:26:28;;;;;;;;;22.00;20.00;;;;;5.90;100.00;99541.50;6287400;20;2835741;-45
2023/02/22 04:28:56;;;;;;;;;21.00;21.00;;;;;6.06;100.00;99540.84;6280893;20;2500304;-43
2023/02/22 04:31:23;;;;;;;;;26.00;20.00;;;;;6.16;100.00;99542.13;6281895;20;2500537;-44
2023/02/22 04:33:51;;;;;;;;;24.00;22.00;;;;;6.08;100.00;99537.19;6283906;20;2500466;-43
2023/02/22 04:36:20;;;;;;;;;27.00;23.00;;;;;6.15;100.00;99540.41;6283550;20;2844162;-45
2023/02/22 04:38:49;;;;;;;;;29.00;24.00;;;;;6.12;100.00;99549.41;6280632;20;2828542;-44
2023/02/22 04:41:18;;;;;;;;;22.00;19.00;;;;;5.83;100.00;99541.84;6282536;20;2844062;-45
2023/02/22 04:43:47;;;;;;;;;29.00;24.50;;;;;5.92;100.00;99541.41;6285599;20;2846317;-44
2023/02/22 04:46:16;;;;;;;;;26.50;26.50;;;;;6.03;100.00;99538.28;6283014;20;2843089;-44
2023/02/22 04:48:45;;;;;;;;;34.00;26.00;;;;;6.14;100.00;99552.00;6281677;20;2853467;-45
2023/02/22 04:51:15;;;;;;;;;29.33;26.33;;;;;6.01;100.00;99543.72;6281254;20;2851345;-43
2023/02/22 04:53:45;;;;;;;;;31.00;31.00;;;;;6.02;100.00;99547.22;6311551;20;2856747;-46
2023/02/22 04:56:18;;;;;;;;;25.50;23.00;;;;;6.04;100.00;99556.03;6313560;20;2850376;-45
2023/02/22 04:58:46;;;;;;;;;27.00;24.00;;;;;6.13;100.00;99551.16;6284514;20;2844029;-44
2023/02/22 05:01:16;;;;;;;;;22.00;22.00;;;;;6.08;100.00;99549.59;6280855;20;2841955;-48
2023/02/22 05:03:44;;;;;;;;;30.50;28.00;;;;;6.08;100.00;99542.50;6282779;20;2500268;-47
2023/02/22 05:06:13;;;;;;;;;27.50;24.50;;;;;6.05;100.00;99541.75;6282945;20;2840931;-45
2023/02/22 05:08:42;;;;;;;;;30.50;30.50;;;;;5.99;100.00;99542.03;6285218;20;2850427;-44
2023/02/22 05:11:11;;;;;;;;;32.33;29.00;;;;;5.99;100.00;99542.03;6281530;20;2887842;-45
2023/02/22 05:13:41;;;;;;;;;30.50;27.00;;;;;6.01;100.00;99542.84;6315072;20;2850326;-46
2023/02/22 05:16:10;;;;;;;;;31.00;30.67;;;;;6.04;100.00;99540.03;6281907;20;2848224;-46
2023/02/22 05:18:39;;;;;;;;;24.00;24.00;;;;;6.01;100.00;99545.50;6311618;20;2847208;-44
2023/02/22 05:21:08;;;;;;;;;35.00;29.00;;;;;6.03;100.00;99539.19;6278116;20;2846739;-44
2023/02/22 05:23:38;;;;;;;;;45.00;33.33;;;;;6.02;100.00;99549.91;6282372;20;3634644;-44
2023/02/22 05:26:07;;;;;;;;;37.33;31.00;;;;;5.99;100.00;99552.72;6314608;20;3614856;-44
2023/02/22 05:28:39;;;;;;;;;37.00;34.50;;;;;6.02;100.00;99544.56;6279774;20;2846169;-44
2023/02/22 05:31:07;;;;;;;;;39.00;35.00;;;;;6.08;100.00;99552.28;6279850;20;2852421;-47
2023/02/22 05:33:38;;;;;;;;;32.50;29.50;;;;;6.03;100.00;99559.63;6285608;20;2851990;-47
2023/02/22 05:36:08;;;;;;;;;31.67;28.33;;;;;5.91;100.00;99561.88;6281346;20;2858688;-43
2023/02/22 05:38:42;;;;;;;;;40.33;34.00;;;;;6.01;100.00;99569.50;6311051;20;2861908;-46
2023/02/22 05:41:12;;;;;;;;;39.00;34.00;;;;;6.08;100.00;99570.94;6308784;20;2852540;-47
2023/02/22 05:43:42;;;;;;;;;35.67;32.67;;;;;5.97;100.00;99582.06;6283203;20;3595584;-45
2023/02/22 05:46:13;;;;;;;;;42.67;34.67;;;;;4.67;100.00;99587.50;6315400;20;2870217;-44
2023/02/22 05:48:42;;;;;;;;;25.50;24.00;;;;;4.10;100.00;99598.47;6314184;20;2845132;-45
2023/02/22 05:51:11;;;;;;;;;35.50;30.00;;;;;4.16;100.00;99597.38;6272725;20;2860881;-43
2023/02/22 05:53:39;;;;;;;;;22.00;22.00;;;;;4.54;100.00;99605.72;6284750;20;2500729;-47
2023/02/22 05:56:07;;;;;;;;;29.00;26.00;;;;;4.79;100.00;99605.59;6283267;20;2845490;-45
2023/02/22 05:58:36;;;;;;;;;28.50;24.50;;;;;4.90;100.00;99619.38;6281495;20;2835818;-45
2023/02/22 06:01:05;;;;;;;;;25.50;23.50;;;;;5.18;100.00;99623.59;6276489;20;2835693;-46
2023/02/22 06:03:34;;;;;;;;;31.00;24.00;;;;;5.23;100.00;99633.09;6281590;20;2838869;-45
2023/02/22 06:06:03;;;;;;;;;30.00;29.00;;;;;5.34;100.00;99651.31;6278817;20;2846140;-44
2023/02/22 06:08:32;;;;;;;;;40.67;35.67;;;;;5.47;100.00;99644.53;6282193;20;2868103;-46
2023/02/22 06:11:01;;;;;;;;;31.50;30.50;;;;;8.22;96.39;99642.38;6314058;20;2854570;-45
2023/02/22 06:13:30;;;;;;;;;28.00;28.00;;;;;9.32;85.48;99650.66;6282100;20;2849219;-45
2023/02/22 06:15:59;;;;;;;;;28.00;26.50;;;;;8.30;84.39;99648.19;6283142;20;2847162;-45
2023/02/22 06:18:31;;;;;;;;;32.67;29.00;;;;;7.38;90.31;99646.66;6281776;20;2856601;-45
2023/02/22 06:21:01;;;;;;;;;29.33;27.33;;;;;6.38;95.38;99644.22;6308346;20;2847283;-45
2023/02/22 06:23:30;;;;;;;;;31.00;24.50;;;;;7.06;95.59;99656.22;6316372;20;2846114;-45
2023/02/22 06:25:58;;;;;;;;;30.00;26.00;;;;;6.91;94.46;99655.16;6283480;20;2850316;-44
2023/02/22 06:28:27;;;;;;;;;21.00;19.00;;;;;6.44;97.33;99655.53;6286448;20;2832670;-45
2023/02/22 06:30:56;;;;;;;;;30.00;26.50;;;;;6.77;97.51;99654.00;6283967;20;2845228;-46
2023/02/22 06:33:24;;;;;;;;;27.00;23.00;;;;;8.10;93.00;99665.25;6284508;20;2841027;-50
2023/02/22 06:35:53;;;;;;;;;31.50;26.00;;;;;9.80;85.38;99671.13;6285054;20;2863020;-50
2023/02/22 06:38:24;;;;;;;;;28.50;25.00;;;;;10.72;78.81;99668.25;6287828;20;2852439;-47
2023/02/22 06:40:54;;;;;;;;;24.00;24.00;;;;;11.77;75.78;99677.63;6285516;20;2845289;-49
2023/02/22 06:43:24;;;;;;;;;28.00;24.50;;;;;13.28;67.82;99687.81;6282293;20;2846196;-46
2023/02/22 06:45:54;;;;;;;;;32.67;31.00;;;;;14.07;61.96;99693.66;6286608;20;3598335;-48
2023/02/22 06:48:22;;;;;;;;;33.33;29.00;;;;;14.23;60.98;99694.19;6319407;20;3596254;-45
2023/02/22 06:50:52;;;;;;;;;33.67;31.67;;;;;13.64;63.89;99696.88;6281814;20;2844142;-48
2023/02/22 06:53:21;;;;;;;;;34.67;32.00;;;;;13.97;61.47;99708.81;6315300;20;2849295;-49
2023/02/22 06:55:54;;;;;;;;;37.00;31.00;;;;;15.09;58.93;99705.56;6318602;20;3598381;-46
2023/02/22 06:58:23;;;;;;;;;38.00;34.00;;;;;15.39;56.76;99707.63;6286563;20;3606540;-49
2023/02/22 07:00:53;;;;;;;;;30.00;27.33;;;;;15.75;54.91;99706.50;6315158;20;2862933;-50
2023/02/22 07:03:22;;;;;;;;;29.33;28.00;;;;;17.07;51.37;99708.78;6316560;20;3591958;-49
2023/02/22 07:05:51;;;;;;;;;26.33;25.67;;;;;15.84;53.83;99710.28;6318245;20;3590969;-48
2023/02/22 07:08:20;;;;;;;;;29.67;28.00;;;;;16.13;53.73;99720.53;6291613;20;3578424;-47
2023/02/22 07:10:49;;;;;;;;;22.00;20.33;;;;;15.80;55.67;99716.94;6282234;20;2852416;-47
2023/02/22 07:13:18;;;;;;;;;27.67;22.00;;;;;15.55;56.15;99720.75;6321073;20;3587783;-45
2023/02/22 07:15:47;;;;;;;;;27.33;24.33;;;;;16.06;53.97;99716.59;6288818;20;3600268;-47
2023/02/22 07:18:16;;;;;;;;;27.00;26.00;;;;;15.94;54.97;99715.78;6288241;20;3601704;-45
2023/02/22 07:20:45;;;;;;;;;25.00;23.00;;;;;17.55;49.85;99731.69;6316662;20;3588974;-45
2023/02/22 07:23:15;;;;;;;;;27.67;24.67;;;;;14.80;56.53;99718.69;6291204;20;3594066;-45
2023/02/22 07:25:44;;;;;;;;;22.00;22.00;;;;;11.58;70.31;99716.50;6281846;20;2835852;-44
2023/02/22 07:28:13;;;;;;;;;23.00;22.00;;;;;10.45;76.83;99713.78;6287610;20;2840941;-47
2023/02/22 07:30:42;;;;;;;;;20.00;17.50;;;;;10.77;77.75;99714.50;6284098;20;2829623;-44
2023/02/22 07:33:12;;;;;;;;;28.33;22.67;;;;;10.58;77.77;99705.81;6278515;20;2848380;-45
2023/02/22 07:35:48;;;;;;;;;21.00;19.00;;;;;10.83;77.72;99704.31;6315459;20;2836743;-44
2023/02/22 07:38:20;;;;;;;;;23.33;23.00;;;;;10.53;79.93;99706.13;6288437;20;3582705;-45
2023/02/22 07:40:48;;;;;;;;;25.00;24.00;;;;;10.50;81.40;99700.06;6283707;20;2850316;-46
2023/02/22 07:43:26;;;;;;;;;25.50;25.50;;;;;10.47;81.19;99711.00;6281704;20;2496165;-50
2023/02/22 07:45:58;;;;;;;;;24.50;21.00;;;;;10.55;81.76;99716.75;6283757;20;2846133;-46
2023/02/22 07:48:30;;;;;;;;;22.50;21.00;;;;;11.14;79.97;99706.81;6286442;20;2833739;-45
2023/02/22 07:50:59;;;;;;;;;24.00;22.00;;;;;11.32;78.33;99711.94;6282893;20;2780525;-45
2023/02/22 07:53:32;;;;;;;;;25.50;22.50;;;;;10.77;80.40;99698.38;6281664;20;2832593;-44
2023/02/22 07:56:04;;;;;;;;;22.00;21.00;;;;;11.27;77.23;99711.38;6282497;20;2841944;-44
2023/02/22 07:58:34;;;;;;;;;23.50;22.00;;;;;11.36;77.98;99710.81;6284862;20;2848235;-47
2023/02/22 08:01:03;;;;;;;;;21.00;20.00;;;;;11.10;78.66;99707.94;6283159;20;2829480;-50
2023/02/22 08:03:35;;;;;;;;;20.50;19.00;;;;;11.39;77.89;99710.59;6284125;20;2832590;-44
2023/02/22 08:06:06;;;;;;;;;18.50;18.50;;;;;11.12;79.13;99707.84;6282982;20;2496142;-48
2023/02/22 08:08:36;;;;;;;;;32.67;25.33;;;;;11.89;74.83;99705.59;6280802;20;3606575;-48
2023/02/22 08:11:04;;;;;;;;;23.00;21.00;;;;;11.40;74.99;99715.00;6313487;20;2835751;-46
2023/02/22 08:13:36;;;;;;;;;18.50;15.00;;;;;11.75;73.75;99701.09;6284105;20;2821160;-44
2023/02/22 08:16:05;;;;;;;;;25.00;22.00;;;;;11.56;74.17;99705.00;6287741;20;2852379;-46
2023/02/22 08:18:32;;;;;;;;;24.00;21.00;;;;;11.24;72.30;99699.00;6287190;20;2492078;-45
2023/02/22 08:21:01;;;;;;;;;26.00;21.00;;;;;11.92;71.51;99714.31;6280524;20;2839949;-47
2023/02/22 08:23:30;;;;;;;;;19.00;19.00;;;;;11.93;72.29;99712.47;6285376;20;2835696;-45
2023/02/22 08:26:19;;;;;;;;;19.00;19.00;;;;;11.91;70.54;99709.91;6279424;20;2833612;-45
2023/02/22 08:28:48;;;;;;;;;16.00;14.00;;;;;11.79;67.53;99707.97;6285563;20;2808646;-47
2023/02/22 08:31:16;;;;;;;;;16.00;16.00;;;;;12.22;66.19;99714.09;6283137;20;2494213;-44
2023/02/22 08:33:48;;;;;;;;;15.00;15.00;;;;;12.02;67.16;99710.03;6283329;20;3537795;-44
2023/02/22 08:36:17;;;;;;;;;11.50;6.00;;;;;11.92;65.71;99717.00;6313612;20;2770485;-48
2023/02/22 08:38:45;;;;;;;;;13.00;11.00;;;;;12.12;66.65;99722.88;6291792;20;2792041;-44
2023/02/22 08:41:12;;;;;;;;;16.00;15.00;;;;;11.86;67.13;99720.97;6282728;20;2809663;-44
2023/02/22 08:43:40;;;;;;;;;17.00;15.50;;;;;11.67;66.88;99724.94;6284217;20;2819102;-46
2023/02/22 08:46:09;;;;;;;;;11.33;11.33;;;;;11.20;69.20;99719.84;6281476;20;2794123;-45
2023/02/22 08:48:36;;;;;;;;;13.00;12.00;;;;;11.21;68.70;99720.69;6312645;20;2789965;-46
2023/02/22 08:51:05;;;;;;;;;13.00;12.67;;;;;11.16;68.31;99728.19;6279986;20;3524370;-46
2023/02/22 08:53:34;;;;;;;;;24.50;24.50;;;;;10.91;69.44;99723.50;6310252;20;2829589;-44
2023/02/22 08:56:03;;;;;;;;;22.50;17.00;;;;;10.97;70.01;99728.47;6285382;20;2841957;-43
2023/02/22 08:58:30;;;;;;;;;18.00;14.00;;;;;11.17;69.39;99732.63;6284220;20;2810717;-45
2023/02/22 09:00:59;;;;;;;;;14.00;13.00;;;;;11.18;69.33;99735.19;6283882;20;3513921;-46
2023/02/22 09:03:28;;;;;;;;;20.00;20.00;;;;;11.68;68.39;99732.91;6312396;20;2844089;-45
2023/02/22 09:05:58;;;;;;;;;19.00;17.00;;;;;11.86;67.40;99734.41;6285688;20;2826310;-46
2023/02/22 09:08:27;;;;;;;;;18.00;14.33;;;;;12.07;66.58;99733.97;6281333;20;3533733;-47
2023/02/22 09:10:55;;;;;;;;;16.00;16.00;;;;;11.82;67.09;99734.69;6284326;20;2829869;-45
2023/02/22 09:13:24;;;;;;;;;17.33;13.33;;;;;11.55;66.83;99735.53;6313614;20;3553441;-49
2023/02/22 09:15:51;;;;;;;;;16.50;12.00;;;;;11.40;66.70;99733.81;6286128;20;2811869;-48
2023/02/22 09:18:20;;;;;;;;;17.00;13.00;;;;;11.06;68.27;99727.94;6283188;20;2813808;-48
2023/02/22 09:20:48;;;;;;;;;13.33;13.00;;;;;11.97;66.09;99727.47;6281377;20;3525485;-45
2023/02/22 09:23:18;;;;;;;;;13.33;12.00;;;;;11.94;66.33;99723.16;6314056;20;3512779;-48
2023/02/22 09:25:49;;;;;;;;;21.50;15.00;;;;;12.34;65.51;99728.53;6311194;20;2489857;-46
2023/02/22 09:28:17;;;;;;;;;17.00;12.00;;;;;12.58;64.76;99727.81;6287412;20;2802593;-47
2023/02/22 09:30:46;;;;;;;;;15.00;14.00;;;;;11.63;66.77;99717.06;6284029;20;3534678;-46
2023/02/22 09:33:18;;;;;;;;;16.00;12.00;;;;;12.25;65.58;99716.56;6316313;20;2799306;-46
2023/02/22 09:35:49;;;;;;;;;16.00;14.00;;;;;12.44;64.60;99718.84;6279840;20;3535702;-46
2023/02/22 09:38:21;;;;;;;;;10.50;9.50;;;;;12.60;62.64;99715.09;6318538;20;2770210;-48
2023/02/22 09:41:14;;;;;;;;;12.00;11.00;;;;;12.40;61.84;99720.06;6286876;20;2792315;-44
2023/02/22 09:44:19;;;;;;;;;15.25;9.25;;;;;12.44;62.47;99716.16;6301164;20;1811867;-45
2023/02/22 09:46:53;;;;;;;;;13.00;8.75;;;;;12.80;62.03;99724.50;6335361;20;2650255;-45
2023/02/22 09:49:37;;;;;;;;;14.33;13.67;;;;;12.64;62.57;99720.19;6312403;20;3522146;-47
2023/02/22 09:52:34;;;;;;;;;15.33;12.33;;;;;12.29;63.04;99718.06;6309381;20;3543126;-45
2023/02/22 09:55:34;;;;;;;;;11.00;9.00;;;;;12.72;61.44;99715.13;6312449;20;2769036;-46
2023/02/22 09:58:21;;;;;;;;;13.50;13.50;;;;;12.63;62.08;99717.59;6285001;20;2798246;-47
2023/02/22 10:01:03;;;;;;;;;13.00;13.00;;;;;12.43;62.33;99717.13;6279755;20;3527354;-45
2023/02/22 10:04:03;;;;;;;;;12.50;12.50;;;;;12.54;61.80;99712.84;6311474;20;2796119;-45
2023/02/22 10:06:34;;;;;;;;;13.67;12.67;;;;;12.73;61.09;99714.13;6285083;20;3540900;-47
2023/02/22 10:09:06;;;;;;;;;17.50;13.50;;;;;12.65;61.59;99712.97;6309645;20;2492008;-47
2023/02/22 10:12:01;;;;;;;;;16.00;13.00;;;;;13.21;60.59;99716.16;6278037;20;2806793;-46
2023/02/22 10:14:41;;;;;;;;;14.00;13.00;;;;;13.10;60.06;99708.84;6279158;20;2795170;-45
2023/02/22 10:17:46;;;;;;;;;15.33;12.67;;;;;12.68;61.82;99712.72;6310471;20;3539928;-45
2023/02/22 10:20:27;;;;;;;;;12.67;11.67;;;;;12.81;61.21;99718.13;6306432;20;2794128;-51
2023/02/22 10:23:33;;;;;;;;;14.00;12.50;;;;;12.75;61.18;99711.34;6314276;20;2793031;-47
2023/02/22 10:26:26;;;;;;;;;14.00;13.00;;;;;12.83;60.07;99711.66;6276824;20;3524215;-45
2023/02/22 10:29:41;;;;;;;;;13.50;11.50;;;;;13.65;59.18;99706.69;6315382;20;2789963;-45
2023/02/22 10:32:27;;;;;;;;;14.00;13.00;;;;;13.17;59.08;99709.28;6283601;20;2791052;-45
2023/02/22 10:34:57;;;;;;;;;14.00;14.00;;;;;13.20;59.91;99703.66;6286686;20;2783655;-47
2023/02/22 10:37:29;;;;;;;;;12.00;11.00;;;;;13.70;58.08;99701.81;6282538;20;2792068;-45
2023/02/22 10:40:21;;;;;;;;;12.80;10.20;;;;;13.61;58.38;99697.06;6306132;20;2788820;-44
2023/02/22 10:42:50;;;;;;;;;13.00;13.00;;;;;13.28;57.58;99701.28;6279564;20;3529493;-45
2023/02/22 10:45:31;;;;;;;;;11.50;9.00;;;;;13.83;56.65;99694.53;6287315;20;2764939;-45
2023/02/22 10:48:07;;;;;;;;;12.00;11.67;;;;;14.08;56.00;99692.66;6280510;20;3517958;-45
2023/02/22 10:50:41;;;;;;;;;12.67;11.00;;;;;13.70;56.69;99690.16;6309491;20;3518134;-47
2023/02/22 10:53:14;;;;;;;;;10.80;7.40;;;;;13.37;56.79;99680.88;6335121;20;2770112;-47
2023/02/22 10:56:21;;;;;;;;;10.33;10.00;;;;;13.81;56.47;99682.97;6280562;20;2786810;-47
2023/02/22 10:59:01;;;;;;;;;12.67;11.00;;;;;13.96;55.66;99674.72;6308396;20;2788910;-47
2023/02/22 11:01:31;;;;;;;;;14.00;10.00;;;;;14.51;54.67;99678.56;6311354;20;2787813;-45
2023/02/22 11:04:20;;;;;;;;;12.00;8.00;;;;;13.71;54.75;99670.28;6281619;20;2767015;-45
2023/02/22 11:07:34;;;;;;;;;13.00;11.67;;;;;13.69;55.15;99673.13;6280659;20;3523225;-45
2023/02/22 11:10:08;;;;;;;;;18.33;13.00;;;;;13.66;56.30;99673.31;6312957;20;3541410;-48
2023/02/22 11:12:42;;;;;;;;;14.50;12.50;;;;;14.59;54.76;99667.19;6321294;20;2785867;-47
2023/02/22 11:15:17;;;;;;;;;10.50;10.50;;;;;15.07;53.72;99667.81;6288240;20;2796209;-46
2023/02/22 11:17:54;;;;;;;;;11.00;10.00;;;;;14.04;53.42;99666.88;6288550;20;2788950;-45
2023/02/22 11:20:33;;;;;;;;;13.00;11.67;;;;;14.37;54.42;99657.16;6282928;20;3522260;-46
2023/02/22 11:23:04;;;;;;;;;11.00;10.00;;;;;14.14;54.51;99662.50;6313756;20;2791980;-45
2023/02/22 11:25:37;;;;;;;;;11.00;11.00;;;;;14.20;54.62;99653.91;6283533;20;2791969;-45
2023/02/22 11:28:31;;;;;;;;;13.33;11.67;;;;;14.78;55.06;99655.78;6283115;20;2794280;-47
2023/02/22 11:31:25;;;;;;;;;10.00;10.00;;;;;14.53;53.22;99660.41;6313625;20;2785793;-48
2023/02/22 11:34:00;;;;;;;;;11.00;11.00;;;;;14.49;54.05;99653.50;6316010;20;2788919;-48
2023/02/22 11:36:40;;;;;;;;;9.00;9.00;;;;;15.07;53.83;99646.19;6317464;20;2737905;-46
2023/02/22 11:39:34;;;;;;;;;11.50;9.50;;;;;14.89;53.67;99636.84;6289213;20;2783657;-46